Time;durP1;ratioP1;P1;durP2;ratioP2;P2;SDS_P1;SDS_P2;PMS_P1;PMS_P2;Temp;Humidity;BMP_temperature;BMP_pressure;BME280_temperature;BME280_humidity;BME280_pressure;Samples;Min_cycle;Max_cycle;Signal;HPM_P1;HPM_P2
2023/03/24 00:00:16;;;;;;;8.27;4.20;;;;;;;13.90;67.99;99643.88;4152140;28;20046;-65
2023/03/24 00:02:20;;;;;;;6.40;4.00;;;;;;;13.90;68.89;99646.50;4174114;28;20047;-65
2023/03/24 00:04:24;;;;;;;7.07;4.00;;;;;;;13.90;68.55;99633.44;4172353;28;20037;-65
2023/03/24 00:06:33;;;;;;;7.35;3.83;;;;;;;13.87;68.85;99636.09;4176202;28;20044;-65
2023/03/24 00:08:37;;;;;;;8.13;4.20;;;;;;;13.90;68.20;99629.94;4176128;28;20048;-65
2023/03/24 00:10:41;;;;;;;7.63;4.00;;;;;;;13.86;69.10;99620.44;4174479;28;20052;-65
2023/03/24 00:12:45;;;;;;;6.80;3.45;;;;;;;13.82;68.62;99610.91;4172446;28;20127;-65
2023/03/24 00:14:49;;;;;;;;;;;;;;;13.74;69.11;99617.06;4169205;28;20041;-65
2023/03/24 00:16:53;;;;;;;5.28;3.67;;;;;;;13.71;69.73;99609.28;4159361;28;19921;-65
2023/03/24 00:18:57;;;;;;;6.72;3.20;;;;;;;13.68;69.78;99613.66;4173936;28;20045;-65
2023/03/24 00:21:05;;;;;;;4.93;3.05;;;;;;;13.68;69.46;99611.06;4174705;28;20033;-65
2023/03/24 00:23:08;;;;;;;6.97;3.50;;;;;;;13.67;69.92;99604.09;4145926;28;20460;-65
2023/03/24 00:25:11;;;;;;;5.32;3.28;;;;;;;13.64;70.28;99593.69;4170981;28;20033;-65
2023/03/24 00:27:16;;;;;;;6.75;3.40;;;;;;;13.68;69.28;99603.22;4168942;28;20041;-65
2023/03/24 00:29:20;;;;;;;4.70;3.20;;;;;;;13.69;69.04;99594.50;4165583;28;20072;-65
2023/03/24 00:31:24;;;;;;;5.20;3.58;;;;;;;13.69;68.99;99592.75;4158340;28;20044;-65
2023/03/24 00:33:27;;;;;;;5.10;3.10;;;;;;;13.71;68.56;99591.00;4175176;28;20496;-66
2023/03/24 00:35:30;;;;;;;11.50;5.32;;;;;;;13.76;67.73;99583.09;4150137;28;20045;-65
2023/03/24 00:37:36;;;;;;;6.00;3.45;;;;;;;13.75;67.82;99568.28;4133243;28;20050;-66
2023/03/24 00:39:42;;;;;;;6.25;3.42;;;;;;;13.73;67.62;99570.06;4169345;28;20071;-66
2023/03/24 00:41:46;;;;;;;6.40;3.50;;;;;;;13.75;67.55;99573.53;4172210;28;20497;-65
2023/03/24 00:43:51;;;;;;;5.20;3.03;;;;;;;13.71;67.15;99558.75;4156416;28;20040;-65
2023/03/24 00:46:00;;;;;;;8.05;4.43;;;;;;;13.70;67.25;99559.66;4171535;28;20063;-65
2023/03/24 00:48:04;;;;;;;6.13;3.35;;;;;;;13.64;67.65;99552.78;4169120;28;20055;-65
2023/03/24 00:50:11;;;;;;;7.28;3.63;;;;;;;13.66;67.71;99539.69;4168075;28;20041;-65
2023/03/24 00:52:16;;;;;;;5.65;3.30;;;;;;;13.63;67.61;99537.13;4153531;28;20424;-65
2023/03/24 00:54:29;;;;;;;5.40;3.42;;;;;;;13.65;67.27;99537.97;4173861;28;20041;-65
2023/03/24 00:56:34;;;;;;;8.23;4.03;;;;;;;13.63;67.32;99524.94;4155974;28;20496;-65
2023/03/24 00:58:38;;;;;;;6.50;3.58;;;;;;;13.64;67.19;99528.38;4140611;28;20097;-65
2023/03/24 01:00:40;;;;;;;6.35;3.42;;;;;;;13.63;67.04;99524.06;4155521;28;20650;-65
2023/03/24 01:02:45;;;;;;;4.70;3.15;;;;;;;13.63;67.17;99517.09;4170606;28;20049;-65
2023/03/24 01:04:53;;;;;;;4.53;3.05;;;;;;;13.59;67.04;99518.91;4163202;28;20378;-65
2023/03/24 01:06:57;;;;;;;;;;;;;;;13.55;67.71;99524.16;4156020;28;20037;-65
2023/03/24 01:09:01;;;;;;;6.65;3.35;;;;;;;13.57;67.52;99525.88;4169628;28;19925;-65
2023/03/24 01:11:06;;;;;;;;;;;;;;;13.55;67.18;99529.38;4167355;28;20029;-65
2023/03/24 01:13:10;;;;;;;5.60;2.93;;;;;;;13.58;66.99;99522.38;4172677;28;20314;-65
2023/03/24 01:15:16;;;;;;;6.13;2.80;;;;;;;13.69;66.64;99523.97;4169699;28;20371;-65
2023/03/24 01:17:21;;;;;;;4.97;2.95;;;;;;;13.69;67.08;99530.06;4157527;28;20123;-65
2023/03/24 01:19:24;;;;;;;;;;;;;;;13.66;66.69;99518.81;4175601;28;20045;-65
2023/03/24 01:21:27;;;;;;;4.05;2.80;;;;;;;13.70;66.55;99530.94;4158177;28;19921;-65
2023/03/24 01:23:30;;;;;;;4.88;2.63;;;;;;;13.72;66.64;99524.78;4152955;28;20497;-65
2023/03/24 01:25:36;;;;;;;4.80;3.00;;;;;;;13.78;66.42;99524.72;4151026;28;20518;-65
2023/03/24 01:27:41;;;;;;;6.80;3.13;;;;;;;13.82;66.35;99525.53;4149158;28;20069;-65
2023/03/24 01:29:44;;;;;;;6.75;2.92;;;;;;;13.81;65.92;99518.56;4163842;28;20087;-65
2023/03/24 01:31:47;;;;;;;6.93;3.20;;;;;;;13.76;66.19;99509.97;4152739;28;20041;-65
2023/03/24 01:33:50;;;;;;;5.50;2.70;;;;;;;13.73;66.73;99512.63;4176139;28;20037;-65
2023/03/24 01:35:54;;;;;;;4.75;2.22;;;;;;;13.65;67.10;99522.28;4140157;28;20128;-65
2023/03/24 01:37:58;;;;;;;6.18;2.63;;;;;;;13.58;66.71;99511.94;4155168;28;20049;-65
2023/03/24 01:40:06;;;;;;;4.55;2.47;;;;;;;13.64;66.22;99510.09;4173020;28;20641;-66
2023/03/24 01:42:17;;;;;;;5.25;2.50;;;;;;;13.67;66.29;99497.88;4158958;28;20122;-66
2023/03/24 01:44:30;;;;;;;3.25;2.00;;;;;;;13.72;65.88;99501.28;4149899;28;20132;-66
2023/03/24 01:46:33;;;;;;;4.93;2.80;;;;;;;13.73;66.06;99515.22;4162148;28;20060;-66
2023/03/24 01:48:40;;;;;;;4.75;2.70;;;;;;;13.76;65.73;99515.19;4134208;28;20038;-66
2023/03/24 01:50:48;;;;;;;5.80;2.10;;;;;;;13.78;65.89;99505.56;4156881;28;20037;-66
2023/03/24 01:52:51;;;;;;;5.28;2.60;;;;;;;13.72;65.43;99513.50;4153806;28;20182;-66
2023/03/24 01:54:58;;;;;;;5.15;3.05;;;;;;;13.76;65.64;99500.34;4150346;28;20037;-65
2023/03/24 01:57:09;;;;;;;4.38;2.65;;;;;;;13.77;65.50;99506.47;4148649;28;20046;-65
2023/03/24 01:59:18;;;;;;;4.18;2.40;;;;;;;13.82;65.68;99506.41;4149669;28;20493;-65
2023/03/24 02:01:39;;;;;;;4.80;3.05;;;;;;;13.82;66.04;99493.34;4144504;28;20094;-65
2023/03/24 02:04:12;;;;;;;5.43;2.38;;;;;;;13.83;66.19;99490.69;4167965;28;20045;-65
2023/03/24 02:06:17;;;;;;;8.20;2.90;;;;;;;13.82;65.66;99483.72;4141820;28;20038;-65
2023/03/24 02:08:32;;;;;;;3.40;2.08;;;;;;;13.84;66.04;99483.72;4158747;28;20041;-65
2023/03/24 02:10:37;;;;;;;6.65;2.58;;;;;;;13.84;65.89;99488.94;4148462;28;20041;-65
2023/03/24 02:12:41;;;;;;;5.35;2.22;;;;;;;13.84;66.14;99491.53;4161792;28;20045;-65
2023/03/24 02:14:45;;;;;;;;;;;;;;;13.78;66.01;99477.72;4151718;28;20152;-65
2023/03/24 02:17:08;;;;;;;7.43;2.47;;;;;;;13.73;66.77;99473.44;4158007;28;19928;-65
2023/03/24 02:19:46;;;;;;;4.00;2.25;;;;;;;13.76;66.61;99465.53;4153907;28;20034;-65
2023/03/24 02:22:14;;;;;;;3.28;2.00;;;;;;;13.76;66.50;99455.09;4143436;28;20058;-65
2023/03/24 02:25:01;;;;;;;3.63;2.10;;;;;;;13.78;66.94;99455.94;4154605;28;20077;-65
2023/03/24 02:27:20;;;;;;;4.40;2.50;;;;;;;13.79;66.56;99463.75;4155651;28;20049;-65
2023/03/24 02:30:05;;;;;;;5.00;2.25;;;;;;;13.78;66.56;99450.69;4159087;28;20045;-65
2023/03/24 02:32:35;;;;;;;3.90;2.45;;;;;;;13.79;67.00;99457.66;4152312;28;20026;-64
2023/03/24 02:35:17;;;;;;;3.70;2.28;;;;;;;13.89;65.70;99453.16;4152903;28;20104;-65
2023/03/24 02:37:54;;;;;;;4.15;2.17;;;;;;;13.84;66.26;99449.75;4141930;28;20072;-65
2023/03/24 02:40:15;;;;;;;6.45;2.28;;;;;;;13.81;65.80;99439.34;4161061;28;20096;-65
2023/03/24 02:42:28;;;;;;;4.22;2.17;;;;;;;13.79;66.58;99434.16;4160551;23;20049;-61
2023/03/24 02:44:39;;;;;;;3.53;2.30;;;;;;;13.81;66.45;99432.38;4146876;28;20463;-61
2023/03/24 02:46:46;;;;;;;4.38;2.15;;;;;;;13.78;66.05;99427.19;4139529;28;20049;-62
2023/03/24 02:49:06;;;;;;;5.53;2.92;;;;;;;13.82;66.28;99425.41;4140435;28;20038;-62
2023/03/24 02:51:15;;;;;;;3.75;2.10;;;;;;;13.82;66.39;99446.31;4160342;28;20145;-62
2023/03/24 02:53:28;;;;;;;3.22;2.15;;;;;;;13.86;65.82;99438.41;4142212;28;20045;-61
2023/03/24 02:56:06;;;;;;;3.50;2.10;;;;;;;13.91;65.90;99436.56;4135551;28;20421;-61
2023/03/24 02:58:17;;;;;;;4.60;2.28;;;;;;;13.92;65.43;99438.28;4160184;28;20041;-61
2023/03/24 03:00:29;;;;;;;;;;;;;;;13.89;65.37;99438.34;4139843;28;20074;-61
2023/03/24 03:02:39;;;;;;;3.90;2.25;;;;;;;13.91;65.21;99431.31;4136568;28;19921;-61
2023/03/24 03:04:48;;;;;;;5.30;3.05;;;;;;;13.95;65.42;99433.00;4130168;28;20581;-61
2023/03/24 03:06:57;;;;;;;5.07;2.35;;;;;;;13.93;65.59;99431.31;4148079;28;20038;-61
2023/03/24 03:09:06;;;;;;;5.30;2.63;;;;;;;13.89;65.17;99434.88;4162633;28;20037;-61
2023/03/24 03:11:15;;;;;;;5.32;2.70;;;;;;;13.96;65.03;99437.34;4137627;28;20035;-61
2023/03/24 03:13:23;;;;;;;5.00;2.30;;;;;;;13.95;65.60;99435.63;4138327;28;20034;-61
2023/03/24 03:15:32;;;;;;;4.30;2.80;;;;;;;13.94;64.70;99426.09;4144549;28;20096;-61
2023/03/24 03:17:38;;;;;;;4.38;2.50;;;;;;;14.00;64.68;99425.09;4146257;28;20041;-61
2023/03/24 03:19:46;;;;;;;4.32;2.40;;;;;;;14.03;64.54;99426.78;4152204;28;20041;-61
2023/03/24 03:21:50;;;;;;;3.97;2.38;;;;;;;14.04;64.07;99433.75;4139788;28;20026;-61
2023/03/24 03:23:57;;;;;;;5.93;2.83;;;;;;;14.05;64.45;99438.09;4125123;28;20058;-62
2023/03/24 03:26:04;;;;;;;5.22;2.33;;;;;;;14.04;65.08;99446.81;4147108;28;20050;-61
2023/03/24 03:28:16;;;;;;;3.15;2.00;;;;;;;14.06;64.29;99445.03;4139650;28;20041;-61
2023/03/24 03:30:24;;;;;;;5.70;2.53;;;;;;;14.06;65.07;99445.03;4140681;28;20517;-61
2023/03/24 03:32:30;;;;;;;4.15;2.50;;;;;;;14.09;64.47;99445.88;4135766;28;20049;-61
2023/03/24 03:34:40;;;;;;;4.32;2.40;;;;;;;14.10;63.75;99451.94;4154398;28;20046;-61
2023/03/24 03:36:48;;;;;;;5.22;2.28;;;;;;;14.08;64.27;99448.50;4146494;28;20045;-61
2023/03/24 03:38:56;;;;;;;3.70;2.53;;;;;;;14.13;63.95;99462.34;4140966;28;20047;-61
2023/03/24 03:41:02;;;;;;;4.75;2.65;;;;;;;14.15;64.33;99463.19;4140642;28;20041;-62
2023/03/24 03:43:11;;;;;;;4.72;2.25;;;;;;;14.08;64.50;99458.97;4152724;28;20034;-61
2023/03/24 03:45:14;;;;;;;4.75;2.78;;;;;;;14.12;63.96;99458.88;4155158;28;20048;-61
2023/03/24 03:47:20;;;;;;;4.03;2.53;;;;;;;14.17;62.81;99461.41;4146420;28;20033;-61
2023/03/24 03:49:24;;;;;;;4.30;2.95;;;;;;;14.25;61.92;99466.50;4157559;28;20489;-61
2023/03/24 03:51:28;;;;;;;6.00;3.20;;;;;;;14.32;62.74;99463.78;4140984;28;20559;-61
2023/03/24 03:53:39;;;;;;;6.30;2.85;;;;;;;14.32;62.23;99468.13;4151053;28;20034;-61
2023/03/24 03:55:43;;;;;;;6.30;3.13;;;;;;;14.30;62.37;99481.22;4143882;28;20050;-61
2023/03/24 03:57:46;;;;;;;4.85;3.50;;;;;;;14.42;62.19;99474.91;4126279;28;20090;-61
2023/03/24 04:00:10;;;;;;;4.75;2.65;;;;;;;14.46;62.34;99479.22;4138627;28;20038;-61
2023/03/24 04:02:34;;;;;;;4.93;2.75;;;;;;;14.42;62.53;99476.69;4153454;28;20033;-61
2023/03/24 04:04:51;;;;;;;4.78;2.72;;;;;;;14.40;62.39;99475.84;4149367;28;20424;-61
2023/03/24 04:07:21;;;;;;;6.22;3.15;;;;;;;14.37;62.46;99496.81;4142724;28;20038;-61
2023/03/24 04:09:50;;;;;;;5.43;2.95;;;;;;;14.39;62.22;99498.50;4144344;28;20041;-61
2023/03/24 04:12:14;;;;;;;6.07;2.67;;;;;;;14.43;62.15;99504.56;4142827;28;20719;-61
2023/03/24 04:14:36;;;;;;;4.03;2.45;;;;;;;14.45;61.51;99510.63;4137834;28;20056;-61
2023/03/24 04:17:11;;;;;;;4.50;2.53;;;;;;;14.43;61.95;99501.94;4139464;28;20040;-61
2023/03/24 04:19:33;;;;;;;3.97;2.30;;;;;;;14.48;61.54;99513.19;4133524;28;20034;-61
2023/03/24 04:21:53;;;;;;;8.25;3.42;;;;;;;14.56;62.48;99511.31;4128394;28;20050;-62
2023/03/24 04:24:05;;;;;;;6.85;3.00;;;;;;;14.48;62.66;99527.13;4138001;28;20042;-62
2023/03/24 04:26:16;;;;;;;5.10;2.85;;;;;;;14.49;62.98;99528.00;4125242;28;20489;-61
2023/03/24 04:28:26;;;;;;;;;;;;;;;14.48;63.88;99536.72;4146043;28;20452;-61
2023/03/24 04:30:37;;;;;;;10.07;3.30;;;;;;;14.51;63.82;99531.44;4131086;28;19926;-61
2023/03/24 04:32:47;;;;;;;9.27;3.80;;;;;;;14.50;64.22;99540.19;4138324;28;20042;-61
2023/03/24 04:35:00;;;;;;;7.13;3.78;;;;;;;14.48;65.00;99536.72;4145890;28;20545;-61
2023/03/24 04:37:36;;;;;;;6.57;3.85;;;;;;;14.48;65.82;99532.38;4141745;28;20053;-61
2023/03/24 04:39:49;;;;;;;5.57;4.05;;;;;;;14.53;65.12;99529.66;4122772;28;20761;-61
2023/03/24 04:41:54;;;;;;;6.65;3.92;;;;;;;14.60;64.89;99531.28;4146034;28;20137;-61
2023/03/24 04:44:00;;;;;;;6.72;3.90;;;;;;;14.53;65.33;99527.06;4147266;28;20305;-61
2023/03/24 04:46:08;;;;;;;6.32;4.03;;;;;;;14.58;65.81;99527.81;4138749;28;20084;-61
2023/03/24 04:48:32;;;;;;;;;;;;;;;14.46;65.23;99522.81;4137635;28;20061;-62
2023/03/24 04:51:15;;;;;;;7.93;4.10;;;;;;;14.53;65.15;99518.31;4135012;28;19976;-61
2023/03/24 04:53:32;;;;;;;5.95;3.65;;;;;;;14.53;65.53;99513.09;4140168;28;20104;-61
2023/03/24 04:55:53;;;;;;;6.40;3.90;;;;;;;14.49;66.02;99509.69;4158703;28;20045;-61
2023/03/24 04:58:12;;;;;;;8.30;3.35;;;;;;;14.44;65.67;99501.03;4117940;28;20065;-61
2023/03/24 05:00:17;;;;;;;6.20;3.70;;;;;;;14.47;65.72;99509.72;4133583;28;20121;-60
2023/03/24 05:02:20;;;;;;;4.47;3.13;;;;;;;14.46;66.55;99507.13;4137798;28;20052;-61
2023/03/24 05:04:40;;;;;;;5.55;2.83;;;;;;;14.44;66.37;99498.44;4131506;28;20316;-61
2023/03/24 05:06:52;;;;;;;5.13;2.85;;;;;;;14.45;65.71;99494.94;4134491;28;20045;-60
2023/03/24 05:08:59;;;;;;;4.22;2.90;;;;;;;14.40;66.83;99491.56;4139311;28;20035;-61
2023/03/24 05:11:05;;;;;;;3.88;2.50;;;;;;;14.38;66.58;99496.78;4140351;28;20034;-60
2023/03/24 05:13:09;;;;;;;6.43;3.03;;;;;;;14.38;66.64;99488.06;4142196;28;20048;-61
2023/03/24 05:15:20;;;;;;;6.68;3.45;;;;;;;14.37;67.18;99483.72;4155340;28;20089;-61
2023/03/24 05:17:28;;;;;;;8.70;3.30;;;;;;;14.34;67.82;99494.25;4146521;28;20046;-60
2023/03/24 05:19:32;;;;;;;7.13;3.35;;;;;;;14.36;67.59;99497.72;4143153;28;20545;-60
2023/03/24 05:21:37;;;;;;;9.23;3.35;;;;;;;14.23;68.29;99507.50;4121908;28;20128;-60
2023/03/24 05:23:41;;;;;;;11.57;3.53;;;;;;;14.23;68.19;99505.75;4136195;28;20121;-61
2023/03/24 05:25:45;;;;;;;7.97;3.75;;;;;;;14.22;68.83;99514.50;4162188;28;20051;-61
2023/03/24 05:27:50;;;;;;;7.00;2.45;;;;;;;14.16;68.92;99508.50;4150415;28;20057;-60
2023/03/24 05:29:56;;;;;;;4.80;2.72;;;;;;;14.22;68.47;99514.50;4161435;28;20060;-61
2023/03/24 05:32:01;;;;;;;4.43;2.45;;;;;;;14.28;68.52;99517.00;4144478;28;20041;-61
2023/03/24 05:34:05;;;;;;;3.33;2.20;;;;;;;14.27;68.67;99522.25;4142695;28;20049;-61
2023/03/24 05:36:17;;;;;;;2.45;2.05;;;;;;;14.44;67.88;99519.34;4147283;28;20332;-61
2023/03/24 05:38:30;;;;;;;3.58;2.28;;;;;;;14.35;67.94;99516.91;4134225;28;20042;-61
2023/03/24 05:40:33;;;;;;;3.95;2.45;;;;;;;14.27;68.77;99517.03;4152342;28;20044;-61
2023/03/24 05:42:47;;;;;;;3.03;2.03;;;;;;;14.22;69.67;99517.09;4145747;28;20140;-61
2023/03/24 05:44:50;;;;;;;3.28;2.38;;;;;;;14.23;68.94;99505.75;4129133;28;20477;-61
2023/03/24 05:47:00;;;;;;;2.22;1.85;;;;;;;14.16;69.66;99505.88;4143256;28;20036;-61
2023/03/24 05:49:03;;;;;;;3.33;2.08;;;;;;;14.14;69.80;99498.91;4137852;28;20046;-61
2023/03/24 05:51:09;;;;;;;4.25;2.88;;;;;;;14.20;69.97;99511.03;4147393;28;20468;-61
2023/03/24 05:53:13;;;;;;;6.07;3.05;;;;;;;14.14;70.22;99506.75;4142613;28;20042;-61
2023/03/24 05:55:46;;;;;;;4.53;2.67;;;;;;;14.09;70.66;99512.94;4163060;28;20048;-61
2023/03/24 05:58:14;;;;;;;4.53;3.20;;;;;;;14.06;70.49;99508.66;4143711;28;20042;-61
2023/03/24 06:00:25;;;;;;;6.55;2.85;;;;;;;14.15;70.43;99510.25;4138089;28;20082;-66
2023/03/24 06:02:34;;;;;;;7.45;3.30;;;;;;;14.24;70.39;99511.84;4129522;28;20045;-67
2023/03/24 06:04:44;;;;;;;3.97;2.97;;;;;;;14.24;70.00;99517.09;4139729;28;20038;-67
2023/03/24 06:06:51;;;;;;;5.38;3.03;;;;;;;14.28;70.05;99503.03;4125916;28;20050;-67
2023/03/24 06:09:01;;;;;;;4.20;2.38;;;;;;;14.25;70.62;99517.06;4144447;28;20065;-67
2023/03/24 06:11:06;;;;;;;4.05;2.67;;;;;;;14.25;70.07;99517.06;4142413;28;20042;-67
2023/03/24 06:13:19;;;;;;;5.00;2.97;;;;;;;14.25;69.95;99519.66;4142689;28;20049;-66
2023/03/24 06:15:26;;;;;;;6.30;3.58;;;;;;;14.34;69.17;99512.53;4138680;28;20046;-67
2023/03/24 06:17:32;;;;;;;5.30;3.58;;;;;;;14.27;69.92;99517.03;4138458;28;20469;-66
2023/03/24 06:19:47;;;;;;;5.05;2.72;;;;;;;14.19;70.08;99524.13;4139969;28;20466;-67
2023/03/24 06:22:02;;;;;;;6.85;3.67;;;;;;;14.13;70.19;99530.31;4154231;28;20042;-66
2023/03/24 06:24:13;;;;;;;4.75;2.88;;;;;;;14.12;70.20;99521.59;4140498;28;20053;-66
2023/03/24 06:26:17;;;;;;;4.50;2.92;;;;;;;14.20;70.17;99523.25;4153067;28;20041;-64
2023/03/24 06:28:29;;;;;;;6.68;3.70;;;;;;;14.26;70.35;99521.38;4157693;28;20589;-65
2023/03/24 06:30:35;;;;;;;4.03;2.90;;;;;;;14.25;70.38;99522.28;4141242;28;20108;-64
2023/03/24 06:32:38;;;;;;;4.75;3.10;;;;;;;14.20;69.86;99533.69;4144281;28;20609;-64
2023/03/24 06:34:41;;;;;;;5.90;3.10;;;;;;;14.18;69.80;99520.66;4143211;28;20037;-64
2023/03/24 06:36:55;;;;;;;4.55;3.03;;;;;;;14.10;70.84;99531.22;4143766;28;20472;-64
2023/03/24 06:38:58;;;;;;;7.05;3.42;;;;;;;14.16;70.77;99522.41;4145961;28;20442;-65
2023/03/24 06:41:03;;;;;;;5.57;3.25;;;;;;;14.18;70.57;99519.78;4164393;28;20073;-65
2023/03/24 06:43:08;;;;;;;5.68;3.33;;;;;;;14.17;70.10;99521.53;4147954;28;20414;-64
2023/03/24 06:45:13;;;;;;;4.53;3.35;;;;;;;14.18;70.72;99533.72;4153918;28;20527;-64
2023/03/24 06:47:16;;;;;;;6.78;3.67;;;;;;;14.12;71.00;99539.06;4139183;28;20165;-65
2023/03/24 06:49:19;;;;;;;8.20;4.10;;;;;;;14.14;70.78;99539.88;4153325;28;20408;-65
2023/03/24 06:51:22;;;;;;;7.28;4.60;;;;;;;14.09;71.29;99541.69;4140035;28;20133;-64
2023/03/24 06:53:25;;;;;;;8.10;4.50;;;;;;;14.06;71.30;99549.56;4139028;28;20109;-65
2023/03/24 06:55:29;;;;;;;6.68;4.07;;;;;;;14.12;71.48;99546.91;4143169;28;20045;-65
2023/03/24 06:57:32;;;;;;;9.38;3.80;;;;;;;14.14;71.50;99560.78;4130607;28;20510;-64
2023/03/24 07:00:09;;;;;;;6.38;4.03;;;;;;;14.19;71.60;99555.50;4124104;28;20077;-65
2023/03/24 07:02:22;;;;;;;10.43;4.13;;;;;;;14.20;71.05;99558.06;4151943;28;20132;-65
2023/03/24 07:04:26;;;;;;;6.87;4.37;;;;;;;14.26;71.23;99563.19;4137623;28;20121;-64
2023/03/24 07:06:42;;;;;;;7.38;4.70;;;;;;;14.31;71.42;99550.94;4148660;28;20085;-65
2023/03/24 07:09:05;;;;;;;6.45;4.22;;;;;;;14.27;71.05;99559.72;4147887;28;20057;-64
2023/03/24 07:11:08;;;;;;;5.40;4.32;;;;;;;14.37;70.78;99562.16;4135920;28;20043;-64
2023/03/24 07:13:15;;;;;;;6.10;3.75;;;;;;;14.39;70.71;99568.25;4147516;28;20091;-64
2023/03/24 07:15:19;;;;;;;7.10;3.78;;;;;;;14.38;70.48;99571.75;4149024;28;20489;-65
2023/03/24 07:17:23;;;;;;;5.82;3.90;;;;;;;14.36;70.18;99579.63;4151418;28;20478;-64
2023/03/24 07:19:56;;;;;;;5.60;3.20;;;;;;;14.37;71.21;99576.13;4138974;28;20080;-65
2023/03/24 07:22:24;;;;;;;4.53;3.38;;;;;;;14.41;69.78;99577.81;4147014;28;20505;-64
2023/03/24 07:24:45;;;;;;;5.13;3.50;;;;;;;14.32;70.86;99577.94;4132580;28;20494;-65
2023/03/24 07:27:11;;;;;;;5.30;3.13;;;;;;;14.44;70.33;99577.75;4140034;28;20041;-64
2023/03/24 07:29:14;;;;;;;4.63;3.25;;;;;;;14.42;69.74;99568.22;4131122;28;20046;-64
2023/03/24 07:31:39;;;;;;;6.00;3.53;;;;;;;14.35;70.94;99556.13;4140006;28;20085;-65
2023/03/24 07:33:45;;;;;;;8.10;3.28;;;;;;;14.28;70.77;99563.19;4140147;28;20348;-65
2023/03/24 07:35:48;;;;;;;7.35;3.92;;;;;;;14.40;71.33;99563.00;4156412;28;20079;-65
2023/03/24 07:37:52;;;;;;;5.30;3.42;;;;;;;14.42;70.23;99557.75;4143026;28;20405;-65
2023/03/24 07:39:55;;;;;;;6.45;3.42;;;;;;;14.38;70.48;99561.28;4145438;28;20046;-64
2023/03/24 07:41:59;;;;;;;3.57;2.87;;;;;;;14.38;69.88;99561.28;4142151;28;20045;-65
2023/03/24 07:44:19;;;;;;;6.18;3.17;;;;;;;14.32;69.95;99557.91;4137908;28;20042;-65
2023/03/24 07:46:26;;;;;;;5.78;3.30;;;;;;;14.33;70.84;99563.97;4156313;28;20045;-65
2023/03/24 07:48:33;;;;;;;5.20;2.90;;;;;;;14.40;70.90;99556.91;4131824;28;20069;-65
2023/03/24 07:50:36;;;;;;;4.70;2.88;;;;;;;14.35;70.17;99572.66;4137020;28;20069;-65
2023/03/24 07:52:49;;;;;;;5.40;3.38;;;;;;;14.32;70.75;99578.81;4139339;28;20034;-64
2023/03/24 07:54:55;;;;;;;5.57;3.42;;;;;;;14.28;71.27;99574.53;4142109;28;20129;-64
2023/03/24 07:57:25;;;;;;;4.22;3.22;;;;;;;14.31;70.54;99571.84;4140590;28;20156;-64
2023/03/24 07:59:28;;;;;;;5.60;3.33;;;;;;;14.38;71.36;99571.75;4154097;28;20061;-64
2023/03/24 08:01:39;;;;;;;6.75;3.90;;;;;;;14.39;70.61;99579.56;4138654;28;20498;-65
2023/03/24 08:03:47;;;;;;;6.38;3.80;;;;;;;14.37;71.06;99580.47;4131719;28;20042;-64
2023/03/24 08:05:51;;;;;;;5.53;3.60;;;;;;;14.45;70.90;99578.63;4133808;28;20065;-64
2023/03/24 08:08:08;;;;;;;5.72;3.50;;;;;;;14.37;71.11;99575.25;4138578;28;20479;-64
2023/03/24 08:10:12;;;;;;;4.38;3.17;;;;;;;14.36;70.96;99563.94;4138875;28;20059;-64
2023/03/24 08:12:15;;;;;;;5.05;3.08;;;;;;;14.44;71.41;99563.81;4137925;28;20184;-64
2023/03/24 08:14:22;;;;;;;4.25;2.78;;;;;;;14.46;71.02;99569.88;4145476;28;20034;-63
2023/03/24 08:16:27;;;;;;;4.70;3.10;;;;;;;14.39;70.53;99568.25;4148326;28;20061;-64
2023/03/24 08:18:33;;;;;;;5.03;3.05;;;;;;;14.45;70.18;99573.38;4146722;28;20474;-64
2023/03/24 08:20:37;;;;;;;4.95;3.03;;;;;;;14.42;71.22;99576.06;4148046;28;20057;-64
2023/03/24 08:22:41;;;;;;;6.45;2.92;;;;;;;14.40;70.44;99581.31;4140994;28;20474;-64
2023/03/24 08:24:44;;;;;;;4.47;2.80;;;;;;;14.32;70.80;99588.41;4136976;28;20045;-64
2023/03/24 08:26:47;;;;;;;6.07;3.10;;;;;;;14.35;71.28;99590.09;4139299;28;20608;-64
2023/03/24 08:28:50;;;;;;;5.82;2.85;;;;;;;14.37;71.06;99588.31;4134695;28;20046;-65
2023/03/24 08:30:53;;;;;;;6.10;3.08;;;;;;;14.36;71.03;99584.00;4136297;28;20126;-65
2023/03/24 08:32:59;;;;;;;3.67;2.88;;;;;;;14.35;70.89;99585.72;4134757;28;20466;-65
2023/03/24 08:35:03;;;;;;;3.90;2.58;;;;;;;14.30;71.52;99579.72;4134542;28;20086;-65
2023/03/24 08:37:08;;;;;;;4.43;2.55;;;;;;;14.32;72.08;99589.28;4135528;28;21080;-65
2023/03/24 08:39:11;;;;;;;5.10;2.70;;;;;;;14.32;71.50;99584.06;4137449;28;20498;-65
2023/03/24 08:41:15;;;;;;;4.35;2.47;;;;;;;14.37;71.81;99588.31;4138923;28;20048;-65
2023/03/24 08:43:21;;;;;;;3.40;2.55;;;;;;;14.32;70.77;99593.63;4136901;28;20046;-65
2023/03/24 08:45:29;;;;;;;3.47;2.53;;;;;;;14.20;71.68;99589.44;4135747;28;20588;-65
2023/03/24 08:47:32;;;;;;;4.43;2.33;;;;;;;14.25;72.07;99576.28;4137238;28;20040;-65
2023/03/24 08:49:35;;;;;;;3.10;2.05;;;;;;;14.19;71.23;99581.63;4135400;28;20049;-65
2023/03/24 08:51:38;;;;;;;4.57;2.40;;;;;;;14.15;71.89;99588.66;4135448;28;20057;-64
2023/03/24 08:53:42;;;;;;;4.13;2.53;;;;;;;14.30;71.72;99591.03;4136293;28;20045;-65
2023/03/24 08:55:45;;;;;;;4.68;2.60;;;;;;;14.37;72.00;99585.69;4134128;28;20161;-64
2023/03/24 08:57:49;;;;;;;3.85;2.30;;;;;;;14.33;72.16;99592.75;4138078;28;20592;-64
2023/03/24 08:59:52;;;;;;;4.43;2.28;;;;;;;14.31;71.76;99587.53;4134852;28;20088;-64
2023/03/24 09:01:55;;;;;;;5.82;2.90;;;;;;;14.35;72.22;99588.34;4134174;28;20046;-64
2023/03/24 09:03:58;;;;;;;6.95;2.30;;;;;;;14.39;71.63;99584.81;4137741;28;20042;-64
2023/03/24 09:06:01;;;;;;;3.63;2.38;;;;;;;14.49;71.78;99577.69;4143084;28;20084;-64
2023/03/24 09:08:04;;;;;;;2.60;2.03;;;;;;;14.49;70.99;99586.38;4136891;28;20097;-64
2023/03/24 09:10:10;;;;;;;4.78;2.20;;;;;;;14.54;71.11;99586.31;4138036;28;20452;-64
2023/03/24 09:12:13;;;;;;;3.00;1.98;;;;;;;14.44;71.76;99596.06;4134947;28;20045;-64
2023/03/24 09:14:16;;;;;;;4.68;2.42;;;;;;;14.52;71.75;99592.47;4137560;28;20037;-64
2023/03/24 09:16:19;;;;;;;5.93;2.50;;;;;;;14.46;71.67;99596.03;4135331;28;20043;-64
2023/03/24 09:18:22;;;;;;;3.30;2.28;;;;;;;14.42;71.81;99592.59;4136034;28;20104;-64
2023/03/24 09:20:26;;;;;;;2.85;2.20;;;;;;;14.41;71.44;99593.50;4136304;28;20046;-64
2023/03/24 09:22:29;;;;;;;4.50;2.25;;;;;;;14.49;71.57;99601.22;4136558;28;20046;-64
2023/03/24 09:24:32;;;;;;;3.90;2.42;;;;;;;14.38;71.56;99592.66;4137292;28;20401;-64
2023/03/24 09:26:36;;;;;;;4.22;2.45;;;;;;;14.29;71.74;99605.00;4137582;28;20465;-64
2023/03/24 09:28:39;;;;;;;4.53;2.33;;;;;;;14.34;71.77;99599.72;4135848;28;20038;-64
2023/03/24 09:30:42;;;;;;;3.30;2.20;;;;;;;14.32;72.05;99599.75;4144907;28;20498;-64
2023/03/24 09:32:46;;;;;;;4.50;2.90;;;;;;;14.42;71.35;99597.81;4135785;28;20045;-64
2023/03/24 09:34:49;;;;;;;5.55;2.33;;;;;;;14.45;72.26;99600.38;4140116;28;20050;-64
2023/03/24 09:36:52;;;;;;;4.00;2.35;;;;;;;14.47;71.67;99613.44;4137130;28;20044;-64
2023/03/24 09:38:55;;;;;;;3.40;2.53;;;;;;;14.42;71.99;99607.44;4142044;28;20041;-64
2023/03/24 09:41:01;;;;;;;5.05;2.55;;;;;;;14.57;71.46;99596.75;4137695;28;20583;-64
2023/03/24 09:43:12;;;;;;;3.67;2.33;;;;;;;14.59;71.93;99594.94;4134647;28;20039;-64
2023/03/24 09:45:18;;;;;;;3.15;2.40;;;;;;;14.62;70.96;99591.47;4135716;28;20052;-64
2023/03/24 09:47:28;;;;;;;4.05;2.65;;;;;;;14.58;71.14;99587.97;4144478;28;20045;-64
2023/03/24 09:49:37;;;;;;;3.22;2.65;;;;;;;14.64;70.58;99590.53;4136601;28;20027;-64
2023/03/24 09:51:43;;;;;;;5.05;2.50;;;;;;;14.63;71.75;99595.78;4141282;28;20053;-64
2023/03/24 09:53:52;;;;;;;3.40;2.35;;;;;;;14.65;71.44;99602.72;4147625;28;20041;-64
2023/03/24 09:55:55;;;;;;;3.83;2.20;;;;;;;14.70;70.89;99596.56;4135143;28;20454;-65
2023/03/24 09:58:04;;;;;;;3.13;2.00;;;;;;;14.64;70.69;99598.38;4135288;28;20034;-65
2023/03/24 10:00:20;;;;;;;5.53;2.78;;;;;;;14.60;70.96;99614.13;4137192;28;20042;-65
2023/03/24 10:02:23;;;;;;;4.82;2.50;;;;;;;14.64;70.47;99608.84;4139745;28;20497;-65
2023/03/24 10:04:31;;;;;;;4.38;2.30;;;;;;;14.53;71.71;99612.47;4139821;28;20121;-65
2023/03/24 10:06:40;;;;;;;3.10;2.20;;;;;;;14.54;71.29;99617.69;4140994;28;20409;-65
2023/03/24 10:08:46;;;;;;;2.78;1.98;;;;;;;14.41;71.44;99619.66;4138475;28;20041;-65